Warbranch, Kentucky
Current Conditions -  °F | °C
As of 11:35 AM on Monday 24 Nov 2014 (Local Time) from KI35 Reporting Station
Overcast Overcast  
Wind Chill: 64°   Ceiling: 5000
Heat Index: 64°   Visibility: 10mi
Dew Point: 45°   Wind: 15mph
Humidity: 49%   Direction: 230°SW
Pressure: 29.67"   Gusts: 32mph
Location:  36.96°N, 83.45°W
Report Text: KI35 241635Z AUTO 23013G28KT 170V270 10SM SCT043 BKN050 OVC065 18/07 A2967 RMK AO1
Loading
Personal Weather Stations






























Interactive Weather Map New forecast layout! Learn more

10-Day Weather Forecast

Advertisements
Track Severe Weather on mobile